Time;durP1;ratioP1;P1;durP2;ratioP2;P2;SDS_P1;SDS_P2;PMS_P1;PMS_P2;Temp;Humidity;BMP_temperature;BMP_pressure;BME280_temperature;BME280_humidity;BME280_pressure;Samples;Min_cycle;Max_cycle;Signal;HPM_P1;HPM_P2
2020/12/22 00:00:20;;;;;;;6.70;5.97;;;7.60;99.90;;;8.44;98.07;99941.34;4727616;30;20209;-67
2020/12/22 00:02:49;;;;;;;8.00;6.40;;;7.60;99.90;;;8.45;97.34;99947.53;4725381;30;20289;-67
2020/12/22 00:05:17;;;;;;;9.13;6.30;;;7.60;99.90;;;8.38;98.34;99920.72;4718955;30;20214;-67
2020/12/22 00:07:44;;;;;;;8.30;6.20;;;7.70;99.90;;;8.37;98.00;99937.03;4718785;30;20276;-67
2020/12/22 00:10:12;;;;;;;8.63;6.77;;;7.70;99.90;;;8.44;97.70;99932.44;4718765;30;20221;-67
2020/12/22 00:12:39;;;;;;;8.13;6.40;;;7.70;99.90;;;8.38;97.23;99922.56;4718192;30;21035;-67
2020/12/22 00:15:08;;;;;;;8.47;6.30;;;7.70;99.90;;;8.44;97.72;99917.19;4718395;30;20857;-66
2020/12/22 00:17:35;;;;;;;6.57;5.83;;;7.70;99.90;;;8.44;97.73;99919.03;4718689;30;20271;-68
2020/12/22 00:20:03;;;;;;;8.17;6.50;;;7.70;99.90;;;8.46;97.56;99928.53;4718697;30;20244;-67
2020/12/22 00:22:31;;;;;;;9.67;7.40;;;7.70;99.90;;;8.57;96.92;99927.06;4718254;30;20271;-67
2020/12/22 00:24:59;;;;;;;8.10;6.57;;;7.80;99.90;;;8.53;97.56;99931.19;4718003;30;20953;-68
2020/12/22 00:27:26;;;;;;;9.23;7.00;;;7.70;99.90;;;8.53;98.67;99918.59;4717966;30;20697;-67
2020/12/22 00:29:54;;;;;;;8.47;7.20;;;7.80;99.90;;;8.46;99.10;99899.00;4718178;30;20583;-67
2020/12/22 00:32:21;;;;;;;8.43;7.13;;;7.70;99.90;;;8.42;99.68;99910.38;4718329;30;20272;-68
2020/12/22 00:34:48;;;;;;;8.83;7.57;;;7.70;99.90;;;8.31;100.00;99902.97;4724604;30;20664;-67
2020/12/22 00:37:15;;;;;;;8.47;7.20;;;7.60;99.90;;;8.32;100.00;99888.53;4718417;30;20213;-67
2020/12/22 00:39:43;;;;;;;10.30;8.00;;;7.50;99.90;;;8.29;100.00;99889.78;4718125;30;20295;-68
2020/12/22 00:42:11;;;;;;;9.00;7.43;;;7.50;99.90;;;8.45;100.00;99880.44;4717859;30;20248;-68
2020/12/22 00:44:38;;;;;;;8.70;7.43;;;7.50;99.90;;;8.42;100.00;99873.63;4718474;30;20249;-68
2020/12/22 00:47:05;;;;;;;8.40;7.43;;;7.50;99.90;;;8.27;100.00;99870.38;4718639;30;20225;-67
2020/12/22 00:49:33;;;;;;;8.70;7.23;;;7.60;99.90;;;8.19;100.00;99859.84;4717964;30;20708;-67
2020/12/22 00:52:00;;;;;;;9.43;7.50;;;7.40;99.90;;;8.29;100.00;99846.00;4718018;30;20320;-68
2020/12/22 00:54:28;;;;;;;10.03;8.13;;;7.50;99.90;;;8.30;100.00;99880.66;4718287;30;20694;-67
2020/12/22 00:56:56;;;;;;;9.67;7.63;;;7.60;99.90;;;8.39;100.00;99873.22;4717763;30;20263;-66
2020/12/22 00:59:24;;;;;;;8.67;6.93;;;7.60;99.90;;;8.40;100.00;99861.47;4717846;30;20268;-68
2020/12/22 01:01:52;;;;;;;9.07;7.27;;;7.60;99.90;;;8.34;100.00;99854.25;4717791;30;20259;-68
2020/12/22 01:04:19;;;;;;;9.10;7.60;;;7.60;99.90;;;8.43;100.00;99856.50;4717849;30;20332;-67
2020/12/22 01:06:46;;;;;;;8.20;7.00;;;7.60;99.90;;;8.60;99.62;99848.75;4717681;30;20641;-67
2020/12/22 01:09:13;;;;;;;8.57;7.40;;;7.60;99.90;;;8.64;99.72;99844.63;4717408;30;20253;-68
2020/12/22 01:11:41;;;;;;;9.27;7.43;;;7.70;99.90;;;8.46;100.00;99848.00;4717374;30;20314;-66
2020/12/22 01:14:09;;;;;;;9.73;7.40;;;7.70;99.90;;;8.63;100.00;99848.31;4717970;30;20224;-66
2020/12/22 01:16:37;;;;;;;10.03;7.87;;;7.80;99.90;;;8.62;100.00;99852.06;4717816;30;20218;-67
2020/12/22 01:19:04;;;;;;;9.50;8.00;;;7.70;99.90;;;8.58;100.00;99851.66;4717833;30;20275;-67
2020/12/22 01:21:31;;;;;;;10.53;8.43;;;7.70;99.90;;;8.58;100.00;99845.47;4717558;30;20297;-66
2020/12/22 01:23:58;;;;;;;10.50;8.33;;;7.70;99.90;;;8.52;100.00;99841.78;4717827;30;20324;-67
2020/12/22 01:26:26;;;;;;;11.27;8.30;;;7.70;99.90;;;8.43;100.00;99842.25;4717003;30;20677;-66
2020/12/22 01:28:54;;;;;;;11.40;8.47;;;7.70;99.90;;;8.38;100.00;99839.38;4717626;30;20221;-66
2020/12/22 01:31:24;;;;;;;11.80;9.27;;;7.60;99.90;;;8.37;100.00;99827.81;4717309;30;20695;-67
2020/12/22 01:33:52;;;;;;;11.03;8.60;;;7.60;99.90;;;8.28;100.00;99831.78;4723743;30;20221;-66
2020/12/22 01:36:20;;;;;;;12.87;9.27;;;7.50;99.90;;;8.28;100.00;99831.78;4717597;30;20217;-66
2020/12/22 01:38:48;;;;;;;11.87;9.00;;;7.60;99.90;;;8.29;100.00;99833.41;4717515;30;20213;-65
2020/12/22 01:41:17;;;;;;;10.80;9.07;;;7.50;99.90;;;8.38;100.00;99850.94;4717255;30;20245;-66
2020/12/22 01:44:01;;;;;;;14.63;9.53;;;7.50;99.90;;;8.24;100.00;99852.00;4717217;30;20218;-65
2020/12/22 01:46:35;;;;;;;11.87;8.80;;;7.50;99.90;;;8.30;100.00;99845.78;4717488;30;20197;-65
2020/12/22 01:49:07;;;;;;;11.17;8.63;;;7.50;99.90;;;8.24;100.00;99843.13;4717055;30;20253;-65
2020/12/22 01:51:36;;;;;;;14.67;10.20;;;7.50;99.90;;;8.27;100.00;99842.75;4717302;30;20274;-66
2020/12/22 01:54:03;;;;;;;11.10;9.33;;;7.40;99.90;;;8.29;100.00;99837.97;4717357;30;20259;-65
2020/12/22 01:56:31;;;;;;;12.07;9.17;;;7.40;99.90;;;8.22;100.00;99831.78;4716535;30;20685;-65
2020/12/22 01:58:58;;;;;;;12.87;9.90;;;7.40;99.90;;;8.24;100.00;99821.66;4717155;30;20245;-65
2020/12/22 02:01:25;;;;;;;11.67;9.23;;;7.40;99.90;;;8.23;100.00;99815.50;4717204;30;20293;-65
2020/12/22 02:03:55;;;;;;;13.13;9.40;;;7.40;99.90;;;8.11;100.00;99811.81;4716896;30;20241;-65
2020/12/22 02:06:22;;;;;;;13.47;9.83;;;7.40;99.90;;;8.27;100.00;99799.81;4717092;30;20309;-65
2020/12/22 02:08:49;;;;;;;12.80;10.00;;;7.40;99.90;;;8.27;100.00;99805.16;4716936;30;20249;-65
2020/12/22 02:11:27;;;;;;;12.47;9.90;;;7.40;99.90;;;8.29;100.00;99803.06;4716381;30;20276;-65
2020/12/22 02:13:55;;;;;;;12.17;9.17;;;7.40;99.90;;;8.25;100.00;99817.97;4717130;30;20209;-66
2020/12/22 02:16:23;;;;;;;12.87;9.70;;;7.40;99.90;;;8.33;100.00;99809.66;4716825;30;20209;-65
2020/12/22 02:18:52;;;;;;;13.67;10.07;;;7.50;99.90;;;8.30;100.00;99816.28;4716777;30;20256;-65
2020/12/22 02:21:20;;;;;;;12.00;8.93;;;7.50;99.90;;;8.34;100.00;99817.50;4717104;30;20213;-65
2020/12/22 02:23:49;;;;;;;11.83;9.10;;;7.50;99.90;;;8.26;100.00;99807.03;4716884;30;20301;-65
2020/12/22 02:26:17;;;;;;;13.83;9.80;;;7.50;99.90;;;8.31;100.00;99801.00;4716194;30;20304;-65
2020/12/22 02:28:44;;;;;;;13.67;9.80;;;7.50;99.90;;;8.22;100.00;99791.53;4716897;30;20300;-65
2020/12/22 02:31:16;;;;;;;13.27;9.97;;;7.50;99.90;;;8.23;100.00;99780.63;4716777;30;20198;-64
2020/12/22 02:33:45;;;;;;;12.70;10.27;;;7.50;99.90;;;8.26;100.00;99776.66;4722466;30;20743;-64
2020/12/22 02:36:15;;;;;;;13.87;9.80;;;7.50;99.90;;;8.23;100.00;99758.28;4716531;30;20292;-64
2020/12/22 02:38:45;;;;;;;13.67;9.63;;;7.50;99.90;;;8.11;100.00;99771.56;4716972;30;20198;-63
2020/12/22 02:41:12;;;;;;;11.57;9.60;;;7.40;99.90;;;8.38;100.00;99764.22;4716445;30;20308;-63
2020/12/22 02:43:40;;;;;;;11.67;8.97;;;7.50;99.90;;;8.28;100.00;99763.88;4716775;30;20304;-63
2020/12/22 02:46:07;;;;;;;12.57;9.23;;;7.50;99.90;;;8.32;100.00;99757.84;4716845;30;20209;-63
2020/12/22 02:48:35;;;;;;;11.60;8.90;;;7.50;99.90;;;8.24;100.00;99754.59;4716530;30;20645;-62
2020/12/22 02:51:02;;;;;;;11.27;8.70;;;7.50;99.90;;;8.37;100.00;99752.66;4716479;30;20308;-63
2020/12/22 02:53:30;;;;;;;12.03;7.97;;;7.60;99.90;;;8.38;100.00;99742.75;4716742;30;20680;-63
2020/12/22 02:55:58;;;;;;;10.83;8.30;;;7.50;99.90;;;8.36;100.00;99739.47;4716404;30;20272;-63
2020/12/22 02:58:25;;;;;;;10.27;8.00;;;7.60;99.90;;;8.35;100.00;99735.97;4716663;30;20677;-62
2020/12/22 03:00:53;;;;;;;9.43;7.70;;;7.50;99.90;;;8.42;100.00;99744.78;4716739;30;20405;-62
2020/12/22 03:03:20;;;;;;;9.97;7.47;;;7.60;99.90;;;8.41;100.00;99736.94;4716631;30;20237;-62
2020/12/22 03:05:47;;;;;;;9.40;7.23;;;7.60;99.90;;;8.47;100.00;99733.41;4716621;30;20563;-63
2020/12/22 03:08:15;;;;;;;9.30;7.00;;;7.60;99.90;;;8.53;100.00;99733.38;4716411;30;20222;-64
2020/12/22 03:10:43;;;;;;;8.70;6.97;;;7.60;99.90;;;8.53;100.00;99735.22;4716206;30;20308;-63
2020/12/22 03:13:11;;;;;;;8.20;6.67;;;7.70;99.90;;;8.51;100.00;99721.19;4716267;30;20333;-63
2020/12/22 03:15:38;;;;;;;9.07;6.30;;;7.70;99.90;;;8.42;100.00;99709.91;4716545;30;20213;-64
2020/12/22 03:18:06;;;;;;;7.40;6.00;;;7.70;99.90;;;8.60;100.00;99719.91;4716300;30;20214;-63
2020/12/22 03:20:33;;;;;;;7.37;5.57;;;7.70;99.90;;;8.57;100.00;99706.91;4716522;30;20704;-64
2020/12/22 03:23:00;;;;;;;7.27;5.90;;;7.80;99.90;;;8.58;100.00;99712.06;4719661;30;20249;-63
2020/12/22 03:25:27;;;;;;;7.43;5.50;;;7.80;99.90;;;8.61;100.00;99697.38;4719356;30;20251;-63
2020/12/22 03:27:55;;;;;;;6.50;5.30;;;7.80;99.90;;;8.57;100.00;99696.97;4719428;30;20744;-64
2020/12/22 03:30:23;;;;;;;6.37;5.37;;;7.80;99.90;;;8.59;100.00;99696.78;4719718;30;20214;-62
2020/12/22 03:32:50;;;;;;;7.03;5.23;;;7.80;99.90;;;8.66;100.00;99692.16;4719323;30;20280;-63
2020/12/22 03:35:17;;;;;;;5.40;4.70;;;7.80;99.90;;;8.68;100.00;99690.09;4725593;30;20255;-63
2020/12/22 03:37:45;;;;;;;7.45;5.80;;;7.80;99.90;;;8.73;100.00;99686.78;4718437;30;20571;-63
2020/12/22 03:40:13;;;;;;;5.47;4.77;;;7.90;99.90;;;8.71;100.00;99688.84;4719167;30;20263;-64
2020/12/22 03:42:40;;;;;;;4.97;4.10;;;7.90;99.90;;;8.73;100.00;99681.41;4719091;30;20304;-62
2020/12/22 03:45:09;;;;;;;5.37;3.90;;;7.90;99.90;;;8.71;100.00;99684.28;4719466;30;20287;-62
2020/12/22 03:47:38;;;;;;;4.87;3.57;;;8.00;99.90;;;8.77;100.00;99688.78;4719190;30;20657;-62
2020/12/22 03:50:20;;;;;;;4.57;3.83;;;8.00;99.90;;;8.80;100.00;99682.97;4719871;30;20205;-63
2020/12/22 03:52:47;;;;;;;3.57;3.27;;;8.00;99.90;;;8.80;100.00;99688.34;4719380;30;20288;-62
2020/12/22 03:55:15;;;;;;;3.63;3.33;;;8.00;99.90;;;8.83;100.00;99689.78;4719747;30;20214;-63
2020/12/22 03:57:43;;;;;;;3.67;3.30;;;8.00;99.90;;;8.79;100.00;99686.72;4719867;30;20283;-62
2020/12/22 04:00:14;;;;;;;3.10;2.80;;;8.10;99.90;;;8.87;100.00;99693.66;4719472;30;20217;-63
2020/12/22 04:02:42;;;;;;;3.20;2.60;;;8.10;99.90;;;8.85;100.00;99693.03;4719208;30;20323;-63
2020/12/22 04:05:09;;;;;;;3.03;2.73;;;8.00;99.90;;;8.95;100.00;99701.41;4719110;30;20275;-64
2020/12/22 04:07:37;;;;;;;3.20;2.83;;;8.10;99.90;;;9.00;100.00;99696.25;4718893;30;20272;-63
2020/12/22 04:10:05;;;;;;;3.10;2.50;;;8.10;99.90;;;9.06;100.00;99695.34;4718681;30;20297;-63
2020/12/22 04:12:33;;;;;;;2.57;2.37;;;8.20;99.90;;;8.95;100.00;99683.44;4718913;30;20272;-63
2020/12/22 04:15:01;;;;;;;3.27;2.73;;;8.10;99.90;;;9.07;100.00;99684.38;4718967;30;20296;-63
2020/12/22 04:17:28;;;;;;;2.43;2.23;;;8.20;99.90;;;9.06;100.00;99671.16;4718926;30;20301;-63
2020/12/22 04:19:56;;;;;;;2.30;2.10;;;8.20;99.90;;;9.11;100.00;99665.94;4718694;30;20245;-64
2020/12/22 04:22:24;;;;;;;2.17;1.97;;;8.20;99.90;;;9.13;100.00;99659.28;4718647;30;20245;-63
2020/12/22 04:24:51;;;;;;;2.00;1.80;;;8.30;99.90;;;8.95;100.00;99659.28;4718130;30;20296;-62
2020/12/22 04:27:18;;;;;;;2.17;1.97;;;8.30;99.90;;;8.91;100.00;99646.53;4718764;30;20237;-63
2020/12/22 04:29:45;;;;;;;2.33;2.13;;;8.20;99.90;;;9.05;100.00;99643.47;4719000;30;20220;-63
2020/12/22 04:32:13;;;;;;;2.07;1.87;;;8.20;99.90;;;9.13;100.00;99647.75;4718162;30;20244;-62
2020/12/22 04:34:43;;;;;;;1.73;1.63;;;8.30;99.90;;;9.16;100.00;99660.72;4724395;30;20655;-62
2020/12/22 04:37:11;;;;;;;1.73;1.60;;;8.30;99.90;;;9.16;100.00;99656.19;4718203;30;20763;-62
2020/12/22 04:39:38;;;;;;;1.57;1.47;;;8.30;99.90;;;9.22;100.00;99652.59;4718130;30;20300;-63
2020/12/22 04:42:07;;;;;;;3.03;1.43;;;8.40;99.90;;;9.27;100.00;99655.44;4718501;30;20240;-63
2020/12/22 04:44:34;;;;;;;1.93;1.27;;;8.40;99.90;;;9.15;100.00;99654.53;4718452;30;20241;-62
2020/12/22 04:47:09;;;;;;;1.80;1.10;;;8.40;99.90;;;9.11;100.00;99661.41;4718116;30;20213;-62
2020/12/22 04:49:41;;;;;;;1.47;1.30;;;8.40;99.90;;;9.32;100.00;99642.13;4718138;30;20302;-62
2020/12/22 04:52:10;;;;;;;2.37;1.23;;;8.40;99.90;;;9.40;100.00;99639.16;4718065;30;20209;-63
2020/12/22 04:54:38;;;;;;;1.10;1.00;;;8.50;99.90;;;9.39;100.00;99634.81;4717495;30;20241;-62
2020/12/22 04:57:07;;;;;;;1.57;1.00;;;8.50;99.90;;;9.32;100.00;99639.44;4718086;30;20268;-63
2020/12/22 04:59:37;;;;;;;0.90;0.90;;;8.50;99.90;;;9.32;100.00;99642.13;4718268;30;20632;-63
2020/12/22 05:02:07;;;;;;;1.10;1.00;;;8.50;99.90;;;9.37;100.00;99636.09;4718159;30;20198;-63
2020/12/22 05:04:39;;;;;;;1.00;0.90;;;8.60;99.90;;;9.50;100.00;99628.72;4717988;30;20304;-63
2020/12/22 05:07:08;;;;;;;0.90;0.90;;;8.60;99.90;;;9.44;100.00;99624.22;4717728;30;20209;-63
2020/12/22 05:09:36;;;;;;;0.60;0.60;;;8.60;99.90;;;9.38;100.00;99627.81;4717300;30;20639;-62
2020/12/22 05:12:04;;;;;;;2.00;0.60;;;8.70;99.90;;;9.54;100.00;99616.44;4717930;30;20229;-62
2020/12/22 05:14:31;;;;;;;0.73;0.73;;;8.70;99.90;;;9.50;100.00;99625.19;4717853;30;20245;-63
2020/12/22 05:16:59;;;;;;;0.60;0.60;;;8.70;99.90;;;9.47;100.00;99620.28;4717708;30;20214;-62
2020/12/22 05:19:33;;;;;;;0.60;0.57;;;8.70;99.90;;;9.57;100.00;99620.56;4717863;30;20241;-63
2020/12/22 05:22:06;;;;;;;1.17;0.50;;;8.70;99.90;;;9.57;100.00;99632.13;4717770;30;20262;-63
2020/12/22 05:24:36;;;;;;;2.50;0.60;;;8.70;99.90;;;9.74;100.00;99625.06;4716908;30;20252;-63
2020/12/22 05:27:05;;;;;;;0.70;0.60;;;8.80;99.90;;;9.53;100.00;99622.88;4717625;30;20271;-62
2020/12/22 05:29:36;;;;;;;1.10;0.60;;;8.80;99.90;;;9.58;100.00;99620.31;4717385;30;20202;-62
2020/12/22 05:32:05;;;;;;;1.53;0.67;;;8.80;99.90;;;9.93;100.00;99614.28;4717233;30;20685;-62
2020/12/22 05:34:32;;;;;;;0.60;0.60;;;8.90;99.90;;;9.85;100.00;99623.47;4723268;30;20296;-61
2020/12/22 05:37:00;;;;;;;1.07;0.60;;;8.90;99.90;;;9.67;100.00;99620.84;4717481;30;20308;-62
2020/12/22 05:39:27;;;;;;;1.33;0.70;;;8.80;99.90;;;9.68;100.00;99623.28;4716980;30;20708;-63
2020/12/22 05:41:55;;;;;;;0.80;0.60;;;8.80;99.90;;;9.58;100.00;99617.63;4717527;30;20669;-62
2020/12/22 05:44:26;;;;;;;2.23;0.60;;;8.80;99.90;;;9.98;100.00;99614.41;4716324;30;20304;-62
2020/12/22 05:46:59;;;;;;;0.40;0.30;;;8.90;99.90;;;9.85;100.00;99612.72;4717423;30;20708;-62
2020/12/22 05:49:26;;;;;;;0.87;0.50;;;8.90;99.90;;;9.71;100.00;99614.78;4717187;30;20292;-62
2020/12/22 05:51:56;;;;;;;0.60;0.60;;;8.80;99.90;;;9.84;100.00;99611.88;4717233;30;20275;-62
2020/12/22 05:54:25;;;;;;;2.37;0.50;;;8.90;99.90;;;9.83;100.00;99602.19;4716697;30;20767;-62
2020/12/22 05:57:06;;;;;;;0.50;0.50;;;8.90;99.90;;;10.00;100.00;99605.03;4716913;30;20310;-62
2020/12/22 05:59:33;;;;;;;0.80;0.60;;;9.00;99.90;;;9.82;100.00;99605.94;4717048;30;20293;-62
2020/12/22 06:02:01;;;;;;;0.60;0.50;;;9.00;99.90;;;10.11;100.00;99596.22;4717223;30;20320;-62
2020/12/22 06:04:30;;;;;;;0.63;0.50;;;9.10;99.90;;;10.09;100.00;99600.19;4717105;30;20225;-63
2020/12/22 06:06:58;;;;;;;0.40;0.40;;;9.10;99.90;;;10.00;100.00;99596.16;4717002;30;20221;-62
2020/12/22 06:09:26;;;;;;;0.40;0.40;;;9.10;99.90;;;10.16;100.00;99604.44;4716743;30;20218;-62
2020/12/22 06:12:00;;;;;;;1.37;0.50;;;9.20;99.90;;;10.34;100.00;99607.03;4716546;30;20733;-62
2020/12/22 06:14:32;;;;;;;0.77;0.40;;;9.30;99.90;;;10.28;100.00;99597.22;4716910;30;20272;-62
2020/12/22 06:17:07;;;;;;;0.90;0.60;;;9.40;99.90;;;10.30;100.00;99588.91;4717020;30;20229;-62
2020/12/22 06:19:37;;;;;;;0.40;0.40;;;9.40;99.90;;;10.25;100.00;99597.66;4716924;30;20216;-62
2020/12/22 06:22:04;;;;;;;1.43;0.60;;;9.30;99.90;;;10.52;100.00;99595.38;4716603;30;20305;-63
2020/12/22 06:24:32;;;;;;;1.43;0.50;;;9.50;99.90;;;10.40;100.00;99605.31;4716660;30;20296;-63
2020/12/22 06:27:00;;;;;;;0.70;0.40;;;9.50;99.90;;;10.50;100.00;99600.16;4716812;30;20645;-62
2020/12/22 06:29:29;;;;;;;0.40;0.40;;;9.50;99.90;;;10.46;100.00;99594.41;4716849;30;20213;-62
2020/12/22 06:32:21;;;;;;;1.73;0.57;;;9.50;99.90;;;10.42;100.00;99608.56;4716785;30;20328;-63
2020/12/22 06:34:49;;;;;;;0.60;0.40;;;9.50;99.90;;;10.46;100.00;99605.19;4722470;30;20703;-62
2020/12/22 06:37:20;;;;;;;0.60;0.60;;;9.50;99.90;;;10.41;100.00;99597.00;4716273;30;20225;-61
2020/12/22 06:39:49;;;;;;;0.70;0.40;;;9.50;99.90;;;10.61;100.00;99593.94;4716299;30;20633;-63
2020/12/22 06:42:45;;;;;;;0.73;0.60;;;9.50;99.90;;;10.61;100.00;99596.63;4716706;30;20370;-62
2020/12/22 06:45:28;;;;;;;0.93;0.50;;;9.60;99.90;;;10.67;100.00;99604.59;4716631;30;20241;-62
2020/12/22 06:48:00;;;;;;;1.73;1.00;;;9.50;99.90;;;10.84;100.00;99607.44;4716215;30;20768;-62
2020/12/22 06:50:43;;;;;;;3.67;3.07;;;9.60;99.90;;;10.77;100.00;99607.53;4716091;30;20649;-62
2020/12/22 06:53:35;;;;;;;0.73;0.67;;;9.70;99.90;;;10.67;100.00;99607.28;4715653;30;20237;-62
2020/12/22 06:56:04;;;;;;;1.00;0.60;;;9.70;99.90;;;10.83;100.00;99608.47;4717121;30;20253;-62
2020/12/22 06:58:39;;;;;;;0.87;0.50;;;9.80;99.90;;;10.99;100.00;99588.91;4719936;30;20279;-61
2020/12/22 07:01:35;;;;;;;0.63;0.53;;;9.80;99.90;;;10.95;100.00;99593.13;4720253;30;20209;-62
2020/12/22 07:04:18;;;;;;;0.77;0.57;;;9.90;99.90;;;10.92;100.00;99607.06;4719312;30;20618;-61
2020/12/22 07:06:50;;;;;;;0.80;0.60;;;9.90;99.90;;;10.86;100.00;99605.31;4719446;30;20252;-62
2020/12/22 07:09:21;;;;;;;1.33;0.50;;;9.90;99.90;;;10.98;100.00;99598.03;4719477;30;20194;-62
2020/12/22 07:11:51;;;;;;;2.23;1.70;;;10.00;99.90;;;10.96;100.00;99608.22;4719155;30;20237;-62
2020/12/22 07:14:20;;;;;;;0.50;0.50;;;10.00;99.90;;;11.04;100.00;99610.59;4719877;30;20261;-62
2020/12/22 07:17:00;;;;;;;0.80;0.60;;;10.10;99.90;;;10.90;100.00;99606.50;4719701;30;20258;-62
2020/12/22 07:19:30;;;;;;;0.97;0.80;;;10.00;99.90;;;11.12;100.00;99614.78;4719439;30;20732;-62
2020/12/22 07:21:59;;;;;;;0.87;0.67;;;10.10;99.90;;;11.04;100.00;99610.59;4719273;30;20213;-62
2020/12/22 07:24:28;;;;;;;0.70;0.70;;;10.10;99.90;;;11.06;100.00;99611.97;4719470;30;20210;-61
2020/12/22 07:26:56;;;;;;;0.60;0.60;;;10.10;99.90;;;11.13;100.00;99611.84;4719596;30;20292;-61
2020/12/22 07:29:24;;;;;;;1.53;1.00;;;10.10;99.90;;;11.17;100.00;99609.50;4719391;30;20222;-62
2020/12/22 07:31:52;;;;;;;0.70;0.70;;;10.20;99.90;;;11.18;100.00;99603.88;4719486;30;20248;-63
2020/12/22 07:34:22;;;;;;;1.10;0.80;;;10.20;99.90;;;11.19;100.00;99608.22;4725407;30;20269;-62
2020/12/22 07:36:50;;;;;;;1.00;0.80;;;10.30;99.90;;;11.23;100.00;99595.88;4719215;30;20241;-61
2020/12/22 07:39:21;;;;;;;1.00;0.63;;;10.30;99.90;;;11.14;100.00;99602.72;4719387;30;20249;-62
2020/12/22 07:41:51;;;;;;;1.20;0.80;;;10.30;99.90;;;11.21;100.00;99589.94;4719332;30;20601;-61
2020/12/22 07:44:21;;;;;;;0.87;0.70;;;10.40;99.90;;;11.33;100.00;99595.31;4719415;30;20218;-61
2020/12/22 07:46:54;;;;;;;1.43;0.50;;;10.40;99.90;;;11.33;100.00;99600.69;4719090;30;20312;-61
2020/12/22 07:49:23;;;;;;;1.30;0.60;;;10.50;99.90;;;11.35;100.00;99595.88;4719100;30;20277;-62
2020/12/22 07:51:50;;;;;;;0.60;0.60;;;10.50;99.90;;;11.41;100.00;99603.00;4728260;30;20217;-61
2020/12/22 07:54:18;;;;;;;1.13;0.50;;;10.50;99.90;;;11.36;100.00;99606.44;4732125;30;20264;-61
2020/12/22 07:56:46;;;;;;;0.80;0.53;;;10.50;99.90;;;11.40;100.00;99602.19;4740660;30;20224;-66
2020/12/22 07:59:17;;;;;;;1.13;0.50;;;10.60;99.90;;;11.49;100.00;99616.94;4751363;30;20635;-65
2020/12/22 08:01:48;;;;;;;0.63;0.50;;;10.60;99.90;;;11.50;100.00;99612.38;4751660;30;20601;-65
2020/12/22 08:04:17;;;;;;;0.50;0.50;;;10.60;99.90;;;11.43;100.00;99617.09;4739660;30;20212;-65
2020/12/22 08:06:56;;;;;;;0.50;0.50;;;10.60;99.90;;;11.55;100.00;99612.47;4715827;30;20304;-65
2020/12/22 08:09:31;;;;;;;0.70;0.60;;;10.70;99.90;;;11.53;100.00;99623.50;4715727;30;20264;-65
2020/12/22 08:12:00;;;;;;;0.77;0.50;;;10.60;99.90;;;11.62;100.00;99630.16;4716323;30;20194;-65
2020/12/22 08:14:30;;;;;;;0.90;0.50;;;10.70;99.90;;;11.77;100.00;99625.09;4716071;30;20310;-65
2020/12/22 08:17:01;;;;;;;1.07;0.50;;;10.70;99.90;;;11.72;100.00;99624.97;4715780;30;20647;-66
2020/12/22 08:19:30;;;;;;;1.07;0.60;;;10.80;99.90;;;11.89;100.00;99623.16;4716138;30;20301;-66
2020/12/22 08:21:59;;;;;;;0.67;0.60;;;10.90;99.90;;;11.88;100.00;99623.41;4714826;30;20743;-66
2020/12/22 08:24:29;;;;;;;1.43;0.50;;;10.90;99.90;;;11.99;100.00;99633.34;4715747;30;20292;-66
2020/12/22 08:26:57;;;;;;;1.60;0.47;;;11.00;99.90;;;12.05;100.00;99641.31;4715260;30;20742;-66
2020/12/22 08:29:25;;;;;;;0.50;0.50;;;11.00;99.90;;;12.09;100.00;99639.72;4715813;30;20303;-67
2020/12/22 08:31:59;;;;;;;0.83;0.50;;;11.00;99.90;;;12.04;100.00;99644.25;4715101;30;20213;-63
2020/12/22 08:34:28;;;;;;;0.97;0.43;;;11.00;99.90;;;12.08;100.00;99650.78;4720952;30;20287;-61
2020/12/22 08:36:56;;;;;;;0.40;0.40;;;11.10;99.90;;;12.21;100.00;99656.69;4715249;30;20263;-62
2020/12/22 08:39:27;;;;;;;0.80;0.40;;;11.10;99.90;;;12.14;100.00;99647.94;4715058;30;20249;-61
2020/12/22 08:41:56;;;;;;;0.60;0.60;;;11.10;99.90;;;12.23;100.00;99651.06;4715256;30;20373;-61
2020/12/22 08:44:25;;;;;;;1.30;0.73;;;11.20;99.90;;;12.31;100.00;99650.69;4715574;30;20342;-62
2020/12/22 08:46:54;;;;;;;0.50;0.50;;;11.20;99.90;;;12.26;100.00;99659.50;4715446;30;20220;-61
2020/12/22 08:49:25;;;;;;;0.70;0.63;;;11.20;99.90;;;12.32;100.00;99663.13;4714996;30;20283;-67
2020/12/22 08:51:56;;;;;;;0.60;0.50;;;11.20;99.90;;;12.24;100.00;99653.50;4715373;30;20329;-74
2020/12/22 08:54:27;;;;;;;1.20;0.80;;;11.30;99.90;;;12.09;100.00;99655.13;4715469;30;20225;-72
2020/12/22 08:57:08;;;;;;;1.00;0.57;;;11.20;99.90;;;12.44;100.00;99658.47;4715344;30;20298;-66
2020/12/22 08:59:36;;;;;;;0.60;0.60;;;11.30;99.90;;;12.33;100.00;99661.25;4721289;30;20243;-67
2020/12/22 09:02:04;;;;;;;1.20;1.10;;;11.30;99.90;;;12.55;100.00;99656.78;4714832;30;20213;-66
2020/12/22 09:04:33;;;;;;;1.47;0.90;;;11.40;99.90;;;12.61;100.00;99650.38;4713909;30;20217;-65
2020/12/22 09:07:11;;;;;;;1.90;0.70;;;11.50;99.90;;;12.65;100.00;99648.84;4713567;30;20260;-68
2020/12/22 09:09:39;;;;;;;2.33;0.73;;;11.60;99.90;;;12.73;99.78;99656.53;4713154;30;20237;-68
2020/12/22 09:12:08;;;;;;;1.87;1.30;;;11.70;99.90;;;12.66;100.00;99670.19;4713886;30;20591;-69
2020/12/22 09:14:41;;;;;;;1.27;1.10;;;11.70;99.90;;;12.67;100.00;99665.59;4713294;30;20666;-68
2020/12/22 09:17:09;;;;;;;2.57;1.80;;;11.70;99.90;;;12.62;100.00;99665.50;4712810;30;20213;-60
2020/12/22 09:19:45;;;;;;;2.27;1.70;;;11.70;99.90;;;12.41;100.00;99679.75;4713259;30;20288;-66
2020/12/22 09:22:14;;;;;;;2.20;1.13;;;11.60;99.90;;;12.47;100.00;99681.47;4713032;30;20654;-65
2020/12/22 09:24:42;;;;;;;0.90;0.77;;;11.60;99.90;;;12.64;100.00;99682.31;4713127;30;20300;-67
2020/12/22 09:27:12;;;;;;;1.30;1.20;;;11.70;99.90;;;12.74;100.00;99674.38;4713492;30;20217;-67
2020/12/22 09:29:41;;;;;;;1.10;1.00;;;11.70;99.90;;;12.85;100.00;99681.59;4713382;30;20537;-66
2020/12/22 09:32:11;;;;;;;1.20;0.80;;;11.80;99.90;;;13.13;100.00;99681.50;4712881;30;20218;-65
2020/12/22 09:34:39;;;;;;;1.50;1.10;;;11.90;99.90;;;13.15;99.79;99684.78;4719034;30;20753;-65
2020/12/22 09:37:09;;;;;;;1.07;1.00;;;12.00;99.90;;;13.25;99.78;99679.53;4721877;30;20240;-68
2020/12/22 09:39:38;;;;;;;0.83;0.83;;;12.00;99.90;;;13.19;99.67;99686.75;4730299;30;20255;-68
2020/12/22 09:42:07;;;;;;;1.40;0.90;;;12.20;99.90;;;13.24;99.80;99686.81;4730467;30;20286;-67
2020/12/22 09:44:35;;;;;;;0.98;0.70;;;12.30;99.90;;;13.17;100.00;99688.06;4730689;30;20289;-68
2020/12/22 09:47:03;;;;;;;0.60;0.60;;;12.20;99.90;;;13.35;99.46;99683.19;4730318;30;20300;-68
2020/12/22 09:49:31;;;;;;;0.77;0.60;;;12.30;99.90;;;13.34;99.78;99686.97;4730256;30;20302;-68
2020/12/22 09:51:58;;;;;;;1.10;0.90;;;12.30;99.90;;;13.37;99.59;99685.66;4730438;30;20304;-68
2020/12/22 09:54:26;;;;;;;1.52;0.90;;;12.30;99.90;;;13.43;99.38;99681.94;4730150;30;20672;-65
2020/12/22 09:56:53;;;;;;;2.42;0.80;;;12.40;99.90;;;13.69;97.79;99689.34;4730479;30;20221;-69
2020/12/22 09:59:22;;;;;;;1.60;0.90;;;12.50;99.90;;;13.61;98.85;99676.25;4730538;30;20308;-69
2020/12/22 10:01:50;;;;;;;0.80;0.50;;;12.60;99.90;;;13.54;99.42;99677.50;4729540;30;20718;-68
2020/12/22 10:04:18;;;;;;;0.77;0.60;;;12.60;99.90;;;13.58;99.32;99681.34;4724325;30;20214;-65
2020/12/22 10:06:46;;;;;;;0.80;0.43;;;12.60;99.90;;;13.57;99.25;99682.41;4712941;30;20213;-67
2020/12/22 10:09:13;;;;;;;0.97;0.70;;;12.60;99.90;;;13.74;97.94;99675.03;4712485;30;20245;-68
2020/12/22 10:11:40;;;;;;;0.80;0.70;;;12.70;99.90;;;13.92;97.25;99680.16;4721248;30;20595;-68
2020/12/22 10:14:07;;;;;;;1.40;0.60;;;12.80;99.90;;;13.96;96.51;99675.84;4712332;30;20233;-68
2020/12/22 10:16:36;;;;;;;0.80;0.80;;;12.90;99.90;;;14.05;96.01;99680.59;4729288;30;20245;-68
2020/12/22 10:19:05;;;;;;;0.60;0.60;;;13.00;99.90;;;14.07;95.99;99681.13;4721044;30;20300;-68
2020/12/22 10:21:32;;;;;;;1.15;0.68;;;13.00;99.90;;;14.02;96.24;99689.19;4712685;30;20237;-68
2020/12/22 10:24:00;;;;;;;0.85;0.60;;;13.00;99.90;;;14.04;96.07;99694.34;4712345;30;20292;-67
2020/12/22 10:26:29;;;;;;;0.82;0.60;;;12.90;99.90;;;13.96;95.89;99684.81;4712194;30;20213;-68
2020/12/22 10:28:56;;;;;;;2.95;0.77;;;13.00;99.90;;;14.12;95.72;99693.94;4712312;30;20932;-69